Time;durP1;ratioP1;P1;durP2;ratioP2;P2;SDS_P1;SDS_P2;PMS_P1;PMS_P2;Temp;Humidity;BMP_temperature;BMP_pressure;BME280_temperature;BME280_humidity;BME280_pressure;Samples;Min_cycle;Max_cycle;Signal;HPM_P1;HPM_P2
2021/01/03 00:02:14;;;;;;;35.60;16.00;;;0.70;99.90;;;;;;5124525;27;20031;-78
2021/01/03 00:04:40;;;;;;;29.40;15.93;;;0.70;99.90;;;;;;5127752;27;20023;-78
2021/01/03 00:07:06;;;;;;;27.48;15.32;;;0.60;99.90;;;;;;5126265;27;20059;-78
2021/01/03 00:09:32;;;;;;;30.13;15.90;;;0.70;99.90;;;;;;5098611;27;20130;-78
2021/01/03 00:11:57;;;;;;;32.20;16.90;;;0.70;99.90;;;;;;5121457;27;20053;-78
2021/01/03 00:14:23;;;;;;;33.58;16.13;;;0.70;99.90;;;;;;5102111;27;20023;-79
2021/01/03 00:16:53;;;;;;;34.33;17.05;;;0.60;99.90;;;;;;5130327;27;20035;-78
2021/01/03 00:19:23;;;;;;;33.22;17.50;;;0.60;99.90;;;;;;5129074;27;20027;-79
2021/01/03 00:21:49;;;;;;;34.97;16.42;;;0.60;99.90;;;;;;5103589;27;20046;-79
2021/01/03 00:24:15;;;;;;;34.17;17.38;;;0.60;99.90;;;;;;5129507;27;20024;-79
2021/01/03 00:26:40;;;;;;;35.75;18.85;;;0.60;99.90;;;;;;5136472;27;20027;-78
2021/01/03 00:29:06;;;;;;;35.70;17.33;;;0.60;99.90;;;;;;5137444;27;20024;-78
2021/01/03 00:31:32;;;;;;;32.97;17.00;;;0.70;99.90;;;;;;5116242;28;20059;-78
2021/01/03 00:33:57;;;;;;;36.50;17.85;;;0.80;99.90;;;;;;5132021;27;20019;-79
2021/01/03 00:36:23;;;;;;;34.45;17.58;;;0.80;99.90;;;;;;5136086;27;20102;-78
2021/01/03 00:38:48;;;;;;;37.92;17.90;;;0.80;99.90;;;;;;5127144;27;20376;-77
2021/01/03 00:41:15;;;;;;;36.60;18.35;;;0.80;99.90;;;;;;5130435;27;20489;-78
2021/01/03 00:43:41;;;;;;;36.38;18.23;;;;;;;;;;5116319;27;20099;-77
2021/01/03 00:46:07;;;;;;;40.67;18.42;;;0.80;99.90;;;;;;5133510;27;20035;-77
2021/01/03 00:48:36;;;;;;;37.22;18.80;;;0.90;99.90;;;;;;5116081;27;20029;-78
2021/01/03 00:51:01;;;;;;;44.40;21.33;;;0.90;99.90;;;;;;5129081;27;20031;-77
2021/01/03 00:53:27;;;;;;;38.67;20.27;;;0.90;99.90;;;;;;5129139;27;20015;-78
2021/01/03 00:55:52;;;;;;;41.40;21.05;;;0.90;99.90;;;;;;5127671;27;20027;-79
2021/01/03 00:58:21;;;;;;;44.60;22.08;;;0.90;99.90;;;;;;5127528;27;20087;-79
2021/01/03 01:00:46;;;;;;;40.30;20.10;;;1.00;99.90;;;;;;5133158;27;20046;-78
2021/01/03 01:03:12;;;;;;;37.45;19.48;;;1.00;99.90;;;;;;5125718;27;20027;-78
2021/01/03 01:05:37;;;;;;;36.80;19.52;;;1.00;99.90;;;;;;5125515;27;20019;-79
2021/01/03 01:08:03;;;;;;;31.90;18.38;;;1.00;99.90;;;;;;5128298;27;20076;-79
2021/01/03 01:10:30;;;;;;;29.92;16.88;;;1.00;99.90;;;;;;5111245;28;20039;-77
2021/01/03 01:12:59;;;;;;;31.52;16.13;;;1.00;99.90;;;;;;5102509;28;20046;-78
2021/01/03 01:15:28;;;;;;;29.65;16.05;;;1.00;99.90;;;;;;5124392;27;20031;-78
2021/01/03 01:17:55;;;;;;;34.42;16.23;;;1.10;99.90;;;;;;5128279;27;20027;-78
2021/01/03 01:20:24;;;;;;;24.50;14.50;;;1.10;99.90;;;;;;5092633;27;20035;-77
2021/01/03 01:22:50;;;;;;;31.05;15.73;;;1.10;99.90;;;;;;5125841;27;20037;-78
2021/01/03 01:25:24;;;;;;;24.92;14.05;;;1.10;99.90;;;;;;5125801;27;20111;-79
2021/01/03 01:27:56;;;;;;;27.30;14.85;;;1.10;99.90;;;;;;5109274;27;20024;-79
2021/01/03 01:30:23;;;;;;;26.10;14.82;;;1.10;99.90;;;;;;5124734;27;20475;-78
2021/01/03 01:32:49;;;;;;;25.88;15.38;;;1.10;99.90;;;;;;5126011;27;20030;-79
2021/01/03 01:35:18;;;;;;;28.48;15.88;;;1.20;99.90;;;;;;5124044;27;20027;-78
2021/01/03 01:37:44;;;;;;;27.52;15.43;;;1.20;99.90;;;;;;5126116;27;20023;-79
2021/01/03 01:40:13;;;;;;;25.85;16.02;;;1.10;99.90;;;;;;5128054;27;20035;-77
2021/01/03 01:42:38;;;;;;;30.80;17.20;;;1.10;99.90;;;;;;5127826;27;20474;-77
2021/01/03 01:45:07;;;;;;;30.50;17.67;;;1.00;99.90;;;;;;5124522;27;20034;-77
2021/01/03 01:47:37;;;;;;;36.83;18.58;;;1.10;99.90;;;;;;5119652;27;20026;-79
2021/01/03 01:50:07;;;;;;;28.50;16.20;;;1.10;99.90;;;;;;5123479;27;20099;-79
2021/01/03 01:52:43;;;;;;;29.30;15.10;;;1.10;99.90;;;;;;5123321;27;20011;-80
2021/01/03 01:55:26;;;;;;;25.65;15.48;;;1.10;99.90;;;;;;5128356;27;20086;-79
2021/01/03 01:58:06;;;;;;;21.00;11.75;;;1.10;99.90;;;;;;5125368;27;20023;-79
2021/01/03 02:00:35;;;;;;;24.50;13.55;;;1.20;99.90;;;;;;5121030;27;20118;-78
2021/01/03 02:03:04;;;;;;;25.13;13.02;;;1.30;99.90;;;;;;5128081;27;20483;-77
2021/01/03 02:05:59;;;;;;;22.73;11.07;;;1.30;99.90;;;;;;5118789;27;20114;-77
2021/01/03 02:08:51;;;;;;;20.92;10.70;;;1.30;99.90;;;;;;5108325;28;20027;-77
2021/01/03 02:11:21;;;;;;;19.13;10.48;;;1.40;99.90;;;;;;5121230;27;20035;-76
2021/01/03 02:13:50;;;;;;;19.30;10.30;;;1.40;99.90;;;;;;5126821;27;20023;-77
2021/01/03 02:16:21;;;;;;;18.38;9.13;;;1.40;99.90;;;;;;5128632;27;20085;-78
2021/01/03 02:18:47;;;;;;;17.90;9.52;;;1.40;99.90;;;;;;5127712;28;20023;-78
2021/01/03 02:21:27;;;;;;;18.10;11.13;;;1.30;99.90;;;;;;5105365;28;20027;-77
2021/01/03 02:24:03;;;;;;;22.45;10.50;;;1.30;99.90;;;;;;5127143;28;20054;-77
2021/01/03 02:26:34;;;;;;;18.60;10.15;;;1.40;99.90;;;;;;5124927;28;20490;-77
2021/01/03 02:29:00;;;;;;;22.08;12.15;;;1.30;99.90;;;;;;5124800;28;20038;-78
2021/01/03 02:31:32;;;;;;;20.83;10.80;;;1.30;99.90;;;;;;5127931;27;20027;-79
2021/01/03 02:34:00;;;;;;;21.17;11.60;;;1.30;99.90;;;;;;5130735;27;20019;-78
2021/01/03 02:36:31;;;;;;;21.48;10.88;;;1.30;99.90;;;;;;5137410;27;20019;-78
2021/01/03 02:39:26;;;;;;;20.40;11.33;;;1.30;99.90;;;;;;5111488;28;20027;-80
2021/01/03 02:41:55;;;;;;;21.45;11.40;;;1.30;99.90;;;;;;5114407;27;20442;-79
2021/01/03 02:44:44;;;;;;;19.83;10.23;;;1.20;99.90;;;;;;5138013;27;20035;-81
2021/01/03 02:47:10;;;;;;;22.67;11.23;;;;;;;;;;5134810;27;20023;-79
2021/01/03 02:49:36;;;;;;;18.23;10.15;;;1.20;99.90;;;;;;5131352;27;20039;-79
2021/01/03 02:52:05;;;;;;;19.30;9.95;;;1.20;99.90;;;;;;5133942;27;20027;-81
2021/01/03 02:54:31;;;;;;;18.38;9.85;;;1.20;99.90;;;;;;5127040;27;20130;-78
2021/01/03 02:56:56;;;;;;;20.55;10.68;;;1.30;99.90;;;;;;5131900;27;20043;-80
2021/01/03 02:59:22;;;;;;;18.55;9.82;;;1.30;99.90;;;;;;5140034;27;20031;-79
2021/01/03 03:01:47;;;;;;;16.73;8.77;;;1.30;99.90;;;;;;5134284;27;20052;-79
2021/01/03 03:04:13;;;;;;;19.77;9.48;;;1.30;99.90;;;;;;5135328;27;20032;-78
2021/01/03 03:06:38;;;;;;;18.63;9.52;;;1.40;99.90;;;;;;5138161;27;20115;-78
2021/01/03 03:09:06;;;;;;;18.83;10.68;;;1.40;99.90;;;;;;5136243;27;20051;-77
2021/01/03 03:11:32;;;;;;;16.85;9.10;;;1.40;99.90;;;;;;5138795;27;20040;-80
2021/01/03 03:13:58;;;;;;;19.23;9.15;;;1.40;99.90;;;;;;5131451;27;20105;-78
2021/01/03 03:16:23;;;;;;;21.40;9.77;;;1.40;99.90;;;;;;5095885;27;20051;-79
2021/01/03 03:18:48;;;;;;;21.02;9.52;;;1.40;99.90;;;;;;5128333;27;20023;-76
2021/01/03 03:21:18;;;;;;;18.77;9.07;;;1.40;99.90;;;;;;5118025;28;20036;-79
2021/01/03 03:23:44;;;;;;;17.25;10.25;;;1.40;99.90;;;;;;5138076;27;20026;-80
2021/01/03 03:26:10;;;;;;;20.35;8.80;;;1.40;99.90;;;;;;5143915;27;20027;-79
2021/01/03 03:28:35;;;;;;;15.85;8.63;;;1.30;99.90;;;;;;5133127;27;20039;-78
2021/01/03 03:31:01;;;;;;;15.55;8.68;;;1.40;99.90;;;;;;5137998;27;20034;-78
2021/01/03 03:33:26;;;;;;;17.55;8.82;;;1.40;99.90;;;;;;5136409;27;20403;-78
2021/01/03 03:35:52;;;;;;;17.40;9.77;;;1.40;99.90;;;;;;5134927;27;20031;-78
2021/01/03 03:38:17;;;;;;;17.00;9.25;;;1.40;99.90;;;;;;5131585;27;20020;-80
2021/01/03 03:40:43;;;;;;;17.73;9.63;;;1.40;99.90;;;;;;5137177;27;20023;-80
2021/01/03 03:43:09;;;;;;;14.90;8.88;;;1.40;99.90;;;;;;5137422;27;20035;-79
2021/01/03 03:45:34;;;;;;;14.57;7.70;;;1.40;99.90;;;;;;5137356;27;20023;-79
2021/01/03 03:48:06;;;;;;;15.43;8.30;;;1.50;99.90;;;;;;5127001;27;20031;-79
2021/01/03 03:50:34;;;;;;;15.07;7.93;;;1.50;99.90;;;;;;5095198;28;20231;-79
2021/01/03 03:53:00;;;;;;;14.57;7.20;;;1.50;99.90;;;;;;5114869;27;20406;-78
2021/01/03 03:55:25;;;;;;;15.43;8.25;;;1.50;99.90;;;;;;5132327;27;20031;-80
2021/01/03 03:57:51;;;;;;;11.63;7.30;;;1.50;99.90;;;;;;5131288;27;20011;-79
2021/01/03 04:00:22;;;;;;;15.07;6.57;;;1.50;99.90;;;;;;5126512;27;20024;-78
2021/01/03 04:02:50;;;;;;;12.70;6.95;;;1.50;99.90;;;;;;5131869;27;20023;-78
2021/01/03 04:05:19;;;;;;;12.93;7.35;;;1.50;99.90;;;;;;5132554;27;20036;-78
2021/01/03 04:07:45;;;;;;;13.20;7.22;;;1.40;99.90;;;;;;5113146;28;20024;-80
2021/01/03 04:10:11;;;;;;;14.43;7.53;;;1.50;99.90;;;;;;5127046;27;20126;-80
2021/01/03 04:12:37;;;;;;;11.43;6.43;;;1.50;99.90;;;;;;5130886;27;20391;-78
2021/01/03 04:15:11;;;;;;;12.63;6.85;;;1.50;99.90;;;;;;5131175;27;20032;-78
2021/01/03 04:17:38;;;;;;;12.63;7.65;;;1.60;99.90;;;;;;5124619;27;20040;-79
2021/01/03 04:20:05;;;;;;;14.18;7.07;;;1.70;99.90;;;;;;5129371;27;20051;-79
2021/01/03 04:22:30;;;;;;;12.05;6.82;;;1.60;99.90;;;;;;5127500;27;20103;-79
2021/01/03 04:24:58;;;;;;;10.70;6.45;;;1.60;99.90;;;;;;5131990;27;20078;-80
2021/01/03 04:27:23;;;;;;;14.15;7.28;;;1.60;99.90;;;;;;5131046;27;20492;-79
2021/01/03 04:29:49;;;;;;;11.82;6.57;;;1.60;99.90;;;;;;5126421;27;20035;-79
2021/01/03 04:32:14;;;;;;;12.13;5.82;;;1.70;99.90;;;;;;5133315;27;20023;-79
2021/01/03 04:34:42;;;;;;;11.05;6.38;;;1.70;99.90;;;;;;5108706;27;20027;-78
2021/01/03 04:37:08;;;;;;;12.07;6.97;;;1.70;99.90;;;;;;5126249;27;20471;-79
2021/01/03 04:39:33;;;;;;;12.93;6.45;;;1.70;99.90;;;;;;5112698;27;20066;-80
2021/01/03 04:42:06;;;;;;;12.68;6.28;;;1.80;99.90;;;;;;5128174;27;20031;-79
2021/01/03 04:44:40;;;;;;;9.73;5.88;;;1.80;99.90;;;;;;5109030;28;20593;-77
2021/01/03 04:47:16;;;;;;;13.07;6.70;;;1.80;99.90;;;;;;5127260;27;20388;-77
2021/01/03 04:49:50;;;;;;;11.77;6.30;;;1.80;99.90;;;;;;5132226;27;20043;-77
2021/01/03 04:52:51;;;;;;;9.45;6.63;;;1.70;99.90;;;;;;5130199;27;20479;-80
2021/01/03 04:55:24;;;;;;;10.33;6.67;;;1.80;99.90;;;;;;5133252;27;20030;-78
2021/01/03 04:58:14;;;;;;;12.02;6.43;;;1.70;99.90;;;;;;5111155;27;20265;-78
2021/01/03 05:01:09;;;;;;;11.52;6.82;;;1.70;99.90;;;;;;5125521;27;20038;-80
2021/01/03 05:04:16;;;;;;;10.73;6.88;;;1.70;99.90;;;;;;5065721;27;20034;-79
2021/01/03 05:06:49;;;;;;;12.82;6.93;;;1.60;99.90;;;;;;5124955;27;20023;-78
2021/01/03 05:09:15;;;;;;;13.52;7.28;;;1.60;99.90;;;;;;5130435;27;20039;-79
2021/01/03 05:11:57;;;;;;;15.57;7.95;;;1.70;99.90;;;;;;5127288;27;20016;-80
2021/01/03 05:14:52;;;;;;;14.68;7.13;;;1.60;99.90;;;;;;5104817;27;20028;-80
2021/01/03 05:17:17;;;;;;;13.05;7.32;;;1.60;99.90;;;;;;5128177;27;20047;-79
2021/01/03 05:19:43;;;;;;;12.32;6.85;;;1.60;99.90;;;;;;5137349;27;20050;-80
2021/01/03 05:22:22;;;;;;;13.25;7.55;;;1.60;99.90;;;;;;5136273;27;20046;-80
2021/01/03 05:24:48;;;;;;;16.35;7.90;;;1.60;99.90;;;;;;5136097;27;20039;-80
2021/01/03 05:27:19;;;;;;;13.07;7.25;;;1.60;99.90;;;;;;5140644;27;20122;-80
2021/01/03 05:29:45;;;;;;;;;;;1.60;99.90;;;;;;5143153;27;20047;-81
2021/01/03 05:32:12;;;;;;;14.15;7.63;;;1.60;99.90;;;;;;5130911;27;19908;-80
2021/01/03 05:34:43;;;;;;;15.98;7.70;;;1.50;99.90;;;;;;5136651;27;20562;-79
2021/01/03 05:37:14;;;;;;;13.40;7.30;;;1.50;99.90;;;;;;5130781;27;20041;-79
2021/01/03 05:39:41;;;;;;;18.13;10.00;;;1.50;99.90;;;;;;5137786;27;20097;-79
2021/01/03 05:42:18;;;;;;;15.52;8.55;;;1.50;99.90;;;;;;5137120;27;20023;-78
2021/01/03 05:44:59;;;;;;;16.90;7.93;;;1.50;99.90;;;;;;5135963;27;20145;-81
2021/01/03 05:47:54;;;;;;;16.42;9.50;;;1.50;99.90;;;;;;5135893;27;20032;-78
2021/01/03 05:50:26;;;;;;;12.50;8.20;;;1.50;99.90;;;;;;5136319;27;20039;-80
2021/01/03 05:52:53;;;;;;;16.08;9.32;;;1.50;99.90;;;;;;5139600;27;20027;-80
2021/01/03 05:55:22;;;;;;;14.98;8.50;;;1.50;99.90;;;;;;5126656;27;20032;-77
2021/01/03 05:57:49;;;;;;;21.58;10.10;;;1.50;99.90;;;;;;5133746;27;20062;-78
2021/01/03 06:00:23;;;;;;;16.00;9.45;;;1.40;99.90;;;;;;5130370;27;20039;-79
2021/01/03 06:02:49;;;;;;;16.77;8.55;;;1.40;99.90;;;;;;5128649;27;20032;-78
2021/01/03 06:05:21;;;;;;;14.07;8.35;;;1.40;99.90;;;;;;5131202;27;20023;-78
2021/01/03 06:08:02;;;;;;;14.48;8.10;;;1.40;99.90;;;;;;5129461;27;20028;-79
2021/01/03 06:10:31;;;;;;;12.55;7.82;;;1.40;99.90;;;;;;5133795;27;20039;-79
2021/01/03 06:12:58;;;;;;;14.65;9.15;;;1.30;99.90;;;;;;5127436;27;20019;-78
2021/01/03 06:15:26;;;;;;;16.00;8.30;;;1.40;99.90;;;;;;5135006;27;20035;-81
2021/01/03 06:17:57;;;;;;;14.80;8.73;;;1.40;99.90;;;;;;5130367;27;20047;-78
2021/01/03 06:20:29;;;;;;;14.20;7.17;;;1.40;99.90;;;;;;5128853;28;20043;-78
2021/01/03 06:23:07;;;;;;;12.75;7.18;;;1.40;99.90;;;;;;5134871;28;20032;-76
2021/01/03 06:26:03;;;;;;;13.07;8.40;;;1.40;99.90;;;;;;5125660;28;20054;-78
2021/01/03 06:28:49;;;;;;;14.48;7.38;;;1.40;99.90;;;;;;5129778;28;20476;-80
2021/01/03 06:31:33;;;;;;;13.75;6.97;;;1.50;99.90;;;;;;5127295;28;20052;-80
2021/01/03 06:34:06;;;;;;;12.40;7.60;;;1.50;99.90;;;;;;5127905;28;20024;-81
2021/01/03 06:37:02;;;;;;;12.02;7.65;;;1.50;99.90;;;;;;5139753;28;20030;-80
2021/01/03 06:39:30;;;;;;;12.18;6.28;;;1.50;99.90;;;;;;5128606;28;20023;-80
2021/01/03 06:42:05;;;;;;;9.85;6.65;;;1.60;99.90;;;;;;5140813;28;20026;-79
2021/01/03 06:45:12;;;;;;;15.40;7.47;;;1.50;99.90;;;;;;5122297;28;20028;-80
2021/01/03 06:47:56;;;;;;;10.98;7.05;;;1.50;99.90;;;;;;5122843;28;20019;-78
2021/01/03 06:50:47;;;;;;;17.08;8.80;;;1.50;99.90;;;;;;5137787;28;20039;-80
2021/01/03 06:54:00;;;;;;;15.85;8.15;;;1.50;99.90;;;;;;5149867;28;20027;-80
2021/01/03 06:56:45;;;;;;;13.88;7.35;;;1.50;99.90;;;;;;5137803;28;20073;-79
2021/01/03 06:59:48;;;;;;;15.63;7.72;;;1.60;99.90;;;;;;5138587;28;20031;-80
2021/01/03 07:02:17;;;;;;;16.17;8.20;;;1.60;99.90;;;;;;5129132;28;20042;-77
2021/01/03 07:04:43;;;;;;;13.80;7.82;;;1.50;99.90;;;;;;5138565;28;20082;-79
2021/01/03 07:07:26;;;;;;;15.27;8.13;;;1.50;99.90;;;;;;5130205;28;20035;-78
2021/01/03 07:09:56;;;;;;;14.95;9.38;;;1.50;99.90;;;;;;5129777;28;20047;-79
2021/01/03 07:12:36;;;;;;;14.68;8.20;;;1.50;99.90;;;;;;5111492;28;20110;-79
2021/01/03 07:15:09;;;;;;;14.48;8.77;;;1.40;99.90;;;;;;5114146;28;20061;-80
2021/01/03 07:17:58;;;;;;;14.45;7.72;;;1.40;99.90;;;;;;5132459;27;20408;-77
2021/01/03 07:20:46;;;;;;;13.23;7.70;;;1.50;99.90;;;;;;5134436;27;20031;-78
2021/01/03 07:23:28;;;;;;;16.40;8.43;;;1.40;99.90;;;;;;5140108;27;20417;-77
2021/01/03 07:26:31;;;;;;;15.57;8.15;;;1.50;99.90;;;;;;5140884;27;20055;-78
2021/01/03 07:28:59;;;;;;;16.52;8.95;;;1.50;99.90;;;;;;5135274;27;20035;-78
2021/01/03 07:31:50;;;;;;;15.85;8.60;;;1.50;99.90;;;;;;5133779;27;20038;-78
2021/01/03 07:34:27;;;;;;;14.35;8.60;;;1.50;99.90;;;;;;5112569;27;20023;-76
2021/01/03 07:36:57;;;;;;;16.23;9.15;;;1.40;99.90;;;;;;5129306;27;20035;-80
2021/01/03 07:39:27;;;;;;;16.60;8.77;;;1.40;99.90;;;;;;5129451;27;20024;-78
2021/01/03 07:42:15;;;;;;;17.27;9.10;;;1.40;99.90;;;;;;5126101;27;20064;-79
2021/01/03 07:44:40;;;;;;;21.40;10.07;;;1.40;99.90;;;;;;5129732;27;20086;-79
2021/01/03 07:47:06;;;;;;;20.70;11.68;;;1.40;99.90;;;;;;5134279;27;20408;-80
2021/01/03 07:49:36;;;;;;;17.23;8.98;;;1.40;99.90;;;;;;5133120;27;20023;-78
2021/01/03 07:52:22;;;;;;;18.77;9.88;;;1.40;99.90;;;;;;5124792;27;20091;-80
2021/01/03 07:54:49;;;;;;;16.27;9.15;;;1.40;99.90;;;;;;5127992;27;20063;-80
2021/01/03 07:57:14;;;;;;;18.58;8.98;;;1.40;99.90;;;;;;5116726;27;20110;-80
2021/01/03 07:59:39;;;;;;;15.70;9.02;;;1.40;99.90;;;;;;5132690;27;20031;-79
2021/01/03 08:02:07;;;;;;;15.45;9.77;;;1.30;99.90;;;;;;5115710;27;20110;-78
2021/01/03 08:04:33;;;;;;;17.15;10.10;;;1.30;99.90;;;;;;5135383;27;20034;-80
2021/01/03 08:07:13;;;;;;;17.17;9.02;;;1.30;99.90;;;;;;5125069;27;20039;-78
2021/01/03 08:09:39;;;;;;;14.40;8.23;;;1.20;99.90;;;;;;5120685;27;20031;-78
2021/01/03 08:12:29;;;;;;;18.75;8.88;;;1.20;99.90;;;;;;5128180;27;20049;-78
2021/01/03 08:15:09;;;;;;;16.35;8.90;;;1.20;99.90;;;;;;5134051;27;20019;-78
2021/01/03 08:17:41;;;;;;;15.65;9.32;;;1.20;99.90;;;;;;5127732;27;20506;-78
2021/01/03 08:20:17;;;;;;;19.13;9.50;;;1.20;99.90;;;;;;5128895;27;20035;-79
2021/01/03 08:22:42;;;;;;;15.40;9.10;;;1.20;99.90;;;;;;5126454;27;20029;-81
2021/01/03 08:25:16;;;;;;;14.98;8.27;;;1.20;99.90;;;;;;5139328;27;20459;-81
2021/01/03 08:27:44;;;;;;;19.00;9.43;;;1.20;99.90;;;;;;5116337;27;20019;-77
2021/01/03 08:30:17;;;;;;;18.27;9.30;;;1.10;99.90;;;;;;5137014;27;20103;-80
2021/01/03 08:32:43;;;;;;;18.33;9.35;;;1.10;99.90;;;;;;5142388;27;20042;-80
2021/01/03 08:35:17;;;;;;;20.00;11.05;;;1.10;99.90;;;;;;5134665;27;20483;-78
2021/01/03 08:37:46;;;;;;;15.73;8.98;;;1.10;99.90;;;;;;5137739;27;20019;-80
2021/01/03 08:40:34;;;;;;;17.30;10.32;;;1.10;99.90;;;;;;5138669;27;20345;-77
2021/01/03 08:43:11;;;;;;;18.13;9.02;;;1.10;99.90;;;;;;5125938;27;20671;-80
2021/01/03 08:45:39;;;;;;;18.30;9.13;;;1.10;99.90;;;;;;5132075;27;20035;-80
2021/01/03 08:48:07;;;;;;;19.75;10.00;;;1.10;99.90;;;;;;5116101;27;20023;-79
2021/01/03 08:50:37;;;;;;;16.42;9.75;;;1.00;99.90;;;;;;5121227;27;20105;-79
2021/01/03 08:53:10;;;;;;;15.23;9.38;;;1.00;99.90;;;;;;5122422;27;20414;-78
2021/01/03 08:55:39;;;;;;;17.80;8.52;;;1.10;99.90;;;;;;5121730;27;20027;-79
2021/01/03 08:58:11;;;;;;;21.10;10.45;;;1.00;99.90;;;;;;5120606;27;20015;-78
2021/01/03 09:00:40;;;;;;;18.45;9.73;;;1.00;99.90;;;;;;5123310;27;20034;-78
2021/01/03 09:03:12;;;;;;;17.73;9.23;;;1.00;99.90;;;;;;5106745;28;20020;-78
2021/01/03 09:05:38;;;;;;;19.58;10.90;;;1.00;99.90;;;;;;5120772;27;20051;-78
2021/01/03 09:08:08;;;;;;;14.60;9.30;;;1.00;99.90;;;;;;5128956;27;20034;-78
2021/01/03 09:10:40;;;;;;;17.77;9.43;;;1.00;99.90;;;;;;5123188;27;20364;-77
2021/01/03 09:13:21;;;;;;;16.42;8.43;;;1.10;99.90;;;;;;5125803;27;21164;-77
2021/01/03 09:15:55;;;;;;;15.30;7.97;;;1.10;99.90;;;;;;5123188;27;20069;-77
2021/01/03 09:18:32;;;;;;;15.80;7.85;;;1.10;99.90;;;;;;5130788;27;20034;-77
2021/01/03 09:21:08;;;;;;;13.18;7.20;;;1.10;99.90;;;;;;5134491;27;20023;-77
2021/01/03 09:23:39;;;;;;;15.77;7.72;;;1.00;99.90;;;;;;5138253;27;20062;-80
2021/01/03 09:26:05;;;;;;;17.25;8.45;;;1.00;99.90;;;;;;5120766;27;20046;-78
2021/01/03 09:28:37;;;;;;;14.95;9.00;;;1.10;99.90;;;;;;5106601;27;20046;-77
2021/01/03 09:31:23;;;;;;;14.13;7.80;;;1.10;99.90;;;;;;5105210;27;20040;-77
2021/01/03 09:33:53;;;;;;;15.55;8.68;;;1.00;99.90;;;;;;5115000;27;20928;-77
2021/01/03 09:36:47;;;;;;;14.68;7.82;;;1.10;99.90;;;;;;5120819;27;20027;-77
2021/01/03 09:39:34;;;;;;;12.00;7.25;;;1.00;99.90;;;;;;5119090;27;20306;-78
2021/01/03 09:42:24;;;;;;;14.02;8.30;;;1.00;99.90;;;;;;5117521;27;20101;-78
2021/01/03 09:45:04;;;;;;;10.57;6.82;;;1.00;99.90;;;;;;5115912;27;20036;-77
2021/01/03 09:47:42;;;;;;;14.95;7.75;;;1.00;99.90;;;;;;5117675;28;20038;-78
2021/01/03 09:50:22;;;;;;;17.42;7.95;;;1.00;99.90;;;;;;5116767;27;20864;-78
2021/01/03 09:52:59;;;;;;;15.60;7.95;;;1.00;99.90;;;;;;5119485;28;20348;-78
2021/01/03 09:55:31;;;;;;;17.52;9.55;;;1.00;99.90;;;;;;5132872;28;20045;-78
2021/01/03 09:58:08;;;;;;;14.07;7.70;;;1.00;99.90;;;;;;5129752;28;20027;-78
2021/01/03 10:00:52;;;;;;;8.63;5.80;;;0.90;99.90;;;;;;5128188;27;20031;-78
2021/01/03 10:03:43;;;;;;;13.30;7.22;;;1.00;99.90;;;;;;5134980;28;20054;-78
2021/01/03 10:06:14;;;;;;;15.15;8.23;;;1.00;99.90;;;;;;5129039;28;20064;-78
2021/01/03 10:08:40;;;;;;;13.40;6.72;;;1.00;99.90;;;;;;5125841;28;20394;-77
2021/01/03 10:11:06;;;;;;;11.85;6.30;;;0.90;99.90;;;;;;5125970;28;20457;-79
2021/01/03 10:13:33;;;;;;;13.80;7.80;;;1.00;99.90;;;;;;5101711;28;20032;-79
2021/01/03 10:16:18;;;;;;;11.95;6.57;;;1.00;99.90;;;;;;5112658;28;20069;-77
2021/01/03 10:18:44;;;;;;;11.70;7.05;;;1.00;99.90;;;;;;5093664;28;20039;-77
2021/01/03 10:21:38;;;;;;;15.60;7.80;;;1.00;99.90;;;;;;5110721;28;20035;-79
2021/01/03 10:24:25;;;;;;;9.95;6.18;;;1.00;99.90;;;;;;5112778;28;20620;-78
2021/01/03 10:27:02;;;;;;;10.27;6.18;;;1.00;99.90;;;;;;5096159;28;20105;-77
2021/01/03 10:29:28;;;;;;;13.18;7.05;;;1.00;99.90;;;;;;5109695;28;20023;-78
2021/01/03 10:31:54;;;;;;;11.77;6.50;;;1.00;99.90;;;;;;5110230;28;20095;-77
2021/01/03 10:34:21;;;;;;;10.05;6.25;;;1.00;99.90;;;;;;5116774;28;20390;-76
2021/01/03 10:36:47;;;;;;;12.50;6.35;;;1.00;99.90;;;;;;5116130;28;20028;-77
2021/01/03 10:39:14;;;;;;;12.18;7.10;;;1.00;99.90;;;;;;5115616;28;20042;-78
2021/01/03 10:41:40;;;;;;;9.68;6.00;;;1.10;99.90;;;;;;5122588;28;20028;-77
2021/01/03 10:44:09;;;;;;;10.23;6.57;;;1.10;99.90;;;;;;5119965;28;21931;-76
2021/01/03 10:46:35;;;;;;;10.98;6.38;;;1.10;99.90;;;;;;5116850;28;20058;-77
2021/01/03 10:49:03;;;;;;;11.90;7.32;;;1.00;99.90;;;;;;5111307;28;20111;-75
2021/01/03 10:51:34;;;;;;;11.68;6.72;;;1.10;99.90;;;;;;5107636;27;20487;-76
2021/01/03 10:54:01;;;;;;;11.37;7.17;;;1.10;99.90;;;;;;5105039;27;20023;-76
2021/01/03 10:56:27;;;;;;;10.50;6.10;;;1.10;99.90;;;;;;5111606;27;20038;-78
2021/01/03 10:58:53;;;;;;;11.30;7.25;;;1.10;99.90;;;;;;5114993;27;20126;-75
2021/01/03 11:01:19;;;;;;;11.73;6.47;;;1.10;99.90;;;;;;5098680;28;20035;-76
2021/01/03 11:03:45;;;;;;;10.48;5.65;;;1.10;99.90;;;;;;5109859;27;20034;-76
2021/01/03 11:06:10;;;;;;;9.73;6.30;;;1.10;99.90;;;;;;5106703;27;20035;-75
2021/01/03 11:08:38;;;;;;;10.77;5.88;;;1.10;99.90;;;;;;5108280;27;20101;-76
2021/01/03 11:11:04;;;;;;;12.07;6.78;;;1.10;99.90;;;;;;5110935;27;20044;-77
2021/01/03 11:13:30;;;;;;;12.15;6.43;;;;;;;;;;5110617;27;20106;-76
2021/01/03 11:15:55;;;;;;;9.23;6.22;;;1.10;99.90;;;;;;5093637;28;20111;-79
2021/01/03 11:18:21;;;;;;;9.52;6.32;;;1.10;99.90;;;;;;5114326;27;20043;-78
2021/01/03 11:20:46;;;;;;;11.32;7.18;;;1.10;99.90;;;;;;5117283;27;20130;-78
2021/01/03 11:23:12;;;;;;;73.03;27.73;;;1.10;99.90;;;;;;5097382;28;20069;-79
2021/01/03 11:25:37;;;;;;;20.33;10.43;;;1.10;99.90;;;;;;5111427;27;20028;-77
2021/01/03 11:28:04;;;;;;;38.47;15.82;;;1.20;99.90;;;;;;5107973;27;20063;-80
2021/01/03 11:30:29;;;;;;;22.23;9.32;;;1.20;99.90;;;;;;5128411;27;20031;-80
2021/01/03 11:32:55;;;;;;;13.25;7.32;;;1.10;99.90;;;;;;5121043;27;20573;-78
2021/01/03 11:35:21;;;;;;;10.10;6.03;;;1.20;99.90;;;;;;5112344;27;20023;-79
2021/01/03 11:37:48;;;;;;;12.80;6.68;;;1.20;99.90;;;;;;5125521;27;20011;-81
2021/01/03 11:40:13;;;;;;;9.23;6.15;;;1.20;99.90;;;;;;5124989;27;20749;-78
2021/01/03 11:42:39;;;;;;;14.60;7.95;;;1.20;99.90;;;;;;5127976;27;20022;-78
2021/01/03 11:45:14;;;;;;;9.10;6.22;;;1.20;99.90;;;;;;5124329;27;20027;-78
2021/01/03 11:47:39;;;;;;;10.80;6.05;;;1.20;99.90;;;;;;5120149;27;20020;-77
2021/01/03 11:50:08;;;;;;;10.40;7.00;;;1.20;99.90;;;;;;5124702;27;20087;-77
2021/01/03 11:52:34;;;;;;;9.68;6.10;;;1.20;99.90;;;;;;5123732;27;20067;-79
2021/01/03 11:54:59;;;;;;;10.27;6.50;;;1.30;99.90;;;;;;5126154;27;20028;-78
2021/01/03 11:57:25;;;;;;;9.98;6.45;;;1.30;99.90;;;;;;5127507;27;20072;-78
2021/01/03 11:59:51;;;;;;;7.68;5.97;;;1.30;99.90;;;;;;5129924;27;20019;-78
2021/01/03 12:02:17;;;;;;;10.05;5.85;;;1.30;99.90;;;;;;5104088;27;20057;-79
2021/01/03 12:04:43;;;;;;;10.38;5.22;;;1.30;99.90;;;;;;5129724;27;20030;-78
2021/01/03 12:07:14;;;;;;;9.38;6.30;;;1.30;99.90;;;;;;5125288;27;20070;-79
2021/01/03 12:09:39;;;;;;;10.55;6.32;;;1.30;99.90;;;;;;5117448;27;20044;-78
2021/01/03 12:12:08;;;;;;;11.10;5.30;;;1.40;99.90;;;;;;5120424;27;20048;-79
2021/01/03 12:14:34;;;;;;;9.43;5.85;;;1.40;99.90;;;;;;5126191;27;20019;-80
2021/01/03 12:17:03;;;;;;;8.35;6.18;;;1.40;99.90;;;;;;5127742;27;20078;-78
2021/01/03 12:19:29;;;;;;;9.73;6.05;;;1.40;99.90;;;;;;5134525;27;20465;-78
2021/01/03 12:21:59;;;;;;;9.00;6.40;;;1.40;99.90;;;;;;5128632;27;20042;-80
2021/01/03 12:24:25;;;;;;;9.85;5.20;;;1.40;99.90;;;;;;5133435;27;20023;-78
2021/01/03 12:26:51;;;;;;;10.13;5.55;;;1.40;99.90;;;;;;5138454;27;20011;-79
2021/01/03 12:29:18;;;;;;;9.32;5.78;;;1.40;99.90;;;;;;5109066;27;20390;-77
2021/01/03 12:31:47;;;;;;;8.55;4.93;;;1.40;99.90;;;;;;5127940;27;20042;-79
2021/01/03 12:34:14;;;;;;;7.55;4.60;;;1.40;99.90;;;;;;5127191;27;20019;-79
2021/01/03 12:36:40;;;;;;;8.73;5.15;;;1.40;99.90;;;;;;5123761;27;20101;-77
2021/01/03 12:39:08;;;;;;;8.57;5.18;;;1.30;99.90;;;;;;5117270;28;20040;-79
2021/01/03 12:41:35;;;;;;;8.13;5.30;;;1.30;99.90;;;;;;5121602;27;20027;-79
2021/01/03 12:44:01;;;;;;;7.20;5.03;;;1.30;99.90;;;;;;5121261;27;20077;-77
2021/01/03 12:46:29;;;;;;;7.85;4.82;;;1.30;99.90;;;;;;5117573;27;20032;-75
2021/01/03 12:48:54;;;;;;;7.15;4.70;;;1.30;99.90;;;;;;5122960;27;20379;-76
2021/01/03 12:51:20;;;;;;;7.95;4.75;;;1.30;99.90;;;;;;5120059;27;20028;-77
2021/01/03 12:53:46;;;;;;;10.25;6.35;;;1.30;99.90;;;;;;5129821;27;20106;-77
2021/01/03 12:56:11;;;;;;;9.70;5.45;;;1.30;99.90;;;;;;5126739;27;20034;-76
2021/01/03 12:58:37;;;;;;;8.52;5.10;;;1.30;99.90;;;;;;5124143;27;20055;-77
2021/01/03 13:01:03;;;;;;;9.20;5.07;;;1.30;99.90;;;;;;5126042;27;20046;-78
2021/01/03 13:03:29;;;;;;;9.52;5.28;;;1.30;99.90;;;;;;5125622;27;20054;-77
2021/01/03 13:05:54;;;;;;;9.45;5.78;;;1.30;99.90;;;;;;5119518;27;20032;-77
2021/01/03 13:08:20;;;;;;;10.55;6.65;;;1.30;99.90;;;;;;5126692;27;20030;-78